L'Orignal, Canada
Current Conditions -  °F | °C
As of 1:55 PM on Thursday 23 Oct 2014 (Local Time) from CYMX Reporting Station
Rain Showers Rain Showers  
Wind Chill: 52°   Ceiling: 4700
Heat Index: 52°   Visibility: 10mi
Dew Point: 41°   Wind: 12mph
Humidity: 67%   Direction: 60°ENE
Pressure: 30.02"   Gusts: 18mph
Location:  45.62°N, 74.68°W
Report Text: CYMX 231755Z 06010G16KT 020V080 10SM -SHRA FEW012 OVC047 11/05 A3002 RMK SF2SC6 SLP168
Loading
Personal Weather Stations






























Interactive Weather Map
Tropical Storm Tracking
New forecast layout! Learn more

10-Day Weather Forecast

Advertisements
Track Severe Weather on mobile